sensor_id;sensor_type;location;lat;lon;timestamp;pressure;altitude;pressure_sealevel;temperature;humidity
80798;BME280;70202;52.238;10.680;2023-09-18T00:00:59;99690.41;;;21.98;72.77
80798;BME280;70202;52.238;10.680;2023-09-18T00:02:00;99667.94;;;21.81;72.78
80798;BME280;70202;52.238;10.680;2023-09-18T00:03:00;99686.59;;;21.89;73.04
80798;BME280;70202;52.238;10.680;2023-09-18T00:04:03;99683.09;;;21.87;72.94
80798;BME280;70202;52.238;10.680;2023-09-18T00:05:03;99670.69;;;21.81;73.16
80798;BME280;70202;52.238;10.680;2023-09-18T00:06:04;99681.50;;;21.84;73.43
80798;BME280;70202;52.238;10.680;2023-09-18T00:07:04;99672.47;;;21.73;73.48
80798;BME280;70202;52.238;10.680;2023-09-18T00:08:05;99676.97;;;21.74;73.81
80798;BME280;70202;52.238;10.680;2023-09-18T00:09:05;99690.28;;;21.80;73.82
80798;BME280;70202;52.238;10.680;2023-09-18T00:10:11;99685.88;;;21.77;73.86
80798;BME280;70202;52.238;10.680;2023-09-18T00:11:12;99681.66;;;21.73;74.03
80798;BME280;70202;52.238;10.680;2023-09-18T00:12:12;99684.41;;;21.73;74.02
80798;BME280;70202;52.238;10.680;2023-09-18T00:13:12;99687.47;;;21.70;74.20
80798;BME280;70202;52.238;10.680;2023-09-18T00:14:13;99672.16;;;21.56;74.12
80798;BME280;70202;52.238;10.680;2023-09-18T00:15:13;99691.56;;;21.66;74.33
80798;BME280;70202;52.238;10.680;2023-09-18T00:16:13;99699.16;;;21.64;74.28
80798;BME280;70202;52.238;10.680;2023-09-18T00:17:14;99698.41;;;21.62;74.46
80798;BME280;70202;52.238;10.680;2023-09-18T00:18:15;99688.50;;;21.50;74.44
80798;BME280;70202;52.238;10.680;2023-09-18T00:19:16;99699.00;;;21.56;74.62
80798;BME280;70202;52.238;10.680;2023-09-18T00:20:16;99672.00;;;21.38;74.57
80798;BME280;70202;52.238;10.680;2023-09-18T00:21:17;99687.19;;;21.44;74.68
80798;BME280;70202;52.238;10.680;2023-09-18T00:22:18;99680.91;;;21.42;74.79
80798;BME280;70202;52.238;10.680;2023-09-18T00:23:18;99690.69;;;21.46;75.22
80798;BME280;70202;52.238;10.680;2023-09-18T00:24:18;99697.13;;;21.46;75.32
80798;BME280;70202;52.238;10.680;2023-09-18T00:25:19;99694.47;;;21.45;75.11
80798;BME280;70202;52.238;10.680;2023-09-18T00:26:19;99682.22;;;21.38;75.15
80798;BME280;70202;52.238;10.680;2023-09-18T00:27:20;99695.81;;;21.41;75.34
80798;BME280;70202;52.238;10.680;2023-09-18T00:28:20;99691.25;;;21.40;75.69
80798;BME280;70202;52.238;10.680;2023-09-18T00:29:20;99685.00;;;21.38;75.46
80798;BME280;70202;52.238;10.680;2023-09-18T00:30:21;99687.03;;;21.36;75.63
80798;BME280;70202;52.238;10.680;2023-09-18T00:31:21;99663.50;;;21.20;75.51
80798;BME280;70202;52.238;10.680;2023-09-18T00:32:22;99664.81;;;21.26;75.75
80798;BME280;70202;52.238;10.680;2023-09-18T00:33:22;99665.53;;;21.18;75.91
80798;BME280;70202;52.238;10.680;2023-09-18T00:34:22;99668.03;;;21.21;75.87
80798;BME280;70202;52.238;10.680;2023-09-18T00:35:23;99677.78;;;21.26;76.03
80798;BME280;70202;52.238;10.680;2023-09-18T00:36:24;99668.47;;;21.27;76.23
80798;BME280;70202;52.238;10.680;2023-09-18T00:37:24;99673.28;;;21.25;76.32
80798;BME280;70202;52.238;10.680;2023-09-18T00:38:24;99676.06;;;21.25;76.34
80798;BME280;70202;52.238;10.680;2023-09-18T00:39:26;99660.16;;;21.17;76.29
80798;BME280;70202;52.238;10.680;2023-09-18T00:40:26;99658.53;;;21.14;76.56
80798;BME280;70202;52.238;10.680;2023-09-18T00:41:27;99647.16;;;21.08;76.60
80798;BME280;70202;52.238;10.680;2023-09-18T00:42:27;99641.91;;;21.05;76.49
80798;BME280;70202;52.238;10.680;2023-09-18T00:43:27;99672.38;;;21.14;76.93
80798;BME280;70202;52.238;10.680;2023-09-18T00:44:28;99663.63;;;21.09;76.87
80798;BME280;70202;52.238;10.680;2023-09-18T00:45:29;99655.03;;;21.03;77.17
80798;BME280;70202;52.238;10.680;2023-09-18T00:46:29;99664.06;;;21.05;77.04
80798;BME280;70202;52.238;10.680;2023-09-18T00:47:31;99658.50;;;21.05;77.04
80798;BME280;70202;52.238;10.680;2023-09-18T00:48:32;99655.91;;;21.03;77.23
80798;BME280;70202;52.238;10.680;2023-09-18T00:49:32;99625.22;;;20.85;77.13
80798;BME280;70202;52.238;10.680;2023-09-18T00:50:33;99644.50;;;20.96;77.39
80798;BME280;70202;52.238;10.680;2023-09-18T00:51:34;99637.66;;;20.91;77.15
80798;BME280;70202;52.238;10.680;2023-09-18T00:52:34;99626.13;;;20.86;77.35
80798;BME280;70202;52.238;10.680;2023-09-18T00:53:35;99602.19;;;20.75;77.59
80798;BME280;70202;52.238;10.680;2023-09-18T00:54:39;99638.81;;;20.98;77.40
80798;BME280;70202;52.238;10.680;2023-09-18T00:55:40;99634.16;;;20.99;77.55
80798;BME280;70202;52.238;10.680;2023-09-18T00:56:41;99621.75;;;20.93;77.52
80798;BME280;70202;52.238;10.680;2023-09-18T00:57:42;99608.34;;;20.88;77.38
80798;BME280;70202;52.238;10.680;2023-09-18T00:58:43;99624.69;;;21.01;77.73
80798;BME280;70202;52.238;10.680;2023-09-18T00:59:45;99608.06;;;20.91;77.41
80798;BME280;70202;52.238;10.680;2023-09-18T01:00:46;99623.53;;;21.04;77.55
80798;BME280;70202;52.238;10.680;2023-09-18T01:01:48;99600.91;;;20.89;77.52
80798;BME280;70202;52.238;10.680;2023-09-18T01:02:50;99594.50;;;20.98;77.66
80798;BME280;70202;52.238;10.680;2023-09-18T01:03:51;99619.31;;;21.09;77.63
80798;BME280;70202;52.238;10.680;2023-09-18T01:04:53;99600.94;;;20.99;77.90
80798;BME280;70202;52.238;10.680;2023-09-18T01:05:54;99617.13;;;21.13;77.61
80798;BME280;70202;52.238;10.680;2023-09-18T01:06:54;99604.44;;;21.10;77.67
80798;BME280;70202;52.238;10.680;2023-09-18T01:07:56;99586.94;;;21.00;77.61
80798;BME280;70202;52.238;10.680;2023-09-18T01:08:57;99610.88;;;21.20;77.58
80798;BME280;70202;52.238;10.680;2023-09-18T01:09:57;99605.03;;;21.23;77.59
80798;BME280;70202;52.238;10.680;2023-09-18T01:11:04;99612.03;;;21.28;77.51
80798;BME280;70202;52.238;10.680;2023-09-18T01:12:21;99614.38;;;21.32;77.45
80798;BME280;70202;52.238;10.680;2023-09-18T01:13:24;99604.28;;;21.31;77.08
80798;BME280;70202;52.238;10.680;2023-09-18T01:15:37;99602.91;;;21.37;77.20
80798;BME280;70202;52.238;10.680;2023-09-18T01:16:47;99587.84;;;21.30;77.17
80798;BME280;70202;52.238;10.680;2023-09-18T01:17:50;99594.25;;;21.40;77.18
80798;BME280;70202;52.238;10.680;2023-09-18T01:18:51;99567.84;;;21.26;77.16
80798;BME280;70202;52.238;10.680;2023-09-18T01:19:51;99568.19;;;21.33;77.18
80798;BME280;70202;52.238;10.680;2023-09-18T01:20:52;99580.56;;;21.38;77.01
80798;BME280;70202;52.238;10.680;2023-09-18T01:21:52;99578.06;;;21.45;77.37
80798;BME280;70202;52.238;10.680;2023-09-18T01:22:53;99580.72;;;21.46;77.30
80798;BME280;70202;52.238;10.680;2023-09-18T01:23:53;99568.00;;;21.44;77.36
80798;BME280;70202;52.238;10.680;2023-09-18T01:24:53;99564.97;;;21.47;77.39
80798;BME280;70202;52.238;10.680;2023-09-18T01:25:54;99577.78;;;21.48;77.00
80798;BME280;70202;52.238;10.680;2023-09-18T01:26:54;99575.88;;;21.49;77.36
80798;BME280;70202;52.238;10.680;2023-09-18T01:27:54;99521.94;;;21.14;77.39
80798;BME280;70202;52.238;10.680;2023-09-18T01:28:55;99506.03;;;21.06;77.37
80798;BME280;70202;52.238;10.680;2023-09-18T01:29:55;99574.88;;;21.50;77.36
80798;BME280;70202;52.238;10.680;2023-09-18T01:30:55;99561.59;;;21.43;77.07
80798;BME280;70202;52.238;10.680;2023-09-18T01:31:56;99497.00;;;21.04;77.63
80798;BME280;70202;52.238;10.680;2023-09-18T01:32:59;99560.88;;;21.41;77.57
80798;BME280;70202;52.238;10.680;2023-09-18T01:34:00;99566.56;;;21.40;77.64
80798;BME280;70202;52.238;10.680;2023-09-18T01:35:02;99566.84;;;21.46;77.67
80798;BME280;70202;52.238;10.680;2023-09-18T01:36:07;99566.00;;;21.46;77.83
80798;BME280;70202;52.238;10.680;2023-09-18T01:37:12;99569.91;;;21.43;77.84
80798;BME280;70202;52.238;10.680;2023-09-18T01:38:14;99571.09;;;21.41;77.84
80798;BME280;70202;52.238;10.680;2023-09-18T01:39:15;99547.31;;;21.29;78.05
80798;BME280;70202;52.238;10.680;2023-09-18T01:40:17;99564.97;;;21.37;78.15
80798;BME280;70202;52.238;10.680;2023-09-18T01:41:18;99552.09;;;21.27;78.17
80798;BME280;70202;52.238;10.680;2023-09-18T01:42:19;99558.69;;;21.35;78.22
80798;BME280;70202;52.238;10.680;2023-09-18T01:43:20;99571.84;;;21.33;78.22
80798;BME280;70202;52.238;10.680;2023-09-18T01:44:21;99542.06;;;21.16;78.11
80798;BME280;70202;52.238;10.680;2023-09-18T01:45:21;99562.91;;;21.30;78.30
80798;BME280;70202;52.238;10.680;2023-09-18T01:46:22;99561.16;;;21.29;78.24
80798;BME280;70202;52.238;10.680;2023-09-18T01:47:23;99555.47;;;21.20;78.10
80798;BME280;70202;52.238;10.680;2023-09-18T01:48:23;99543.06;;;21.15;78.41
80798;BME280;70202;52.238;10.680;2023-09-18T01:49:36;99545.38;;;21.19;78.32
80798;BME280;70202;52.238;10.680;2023-09-18T01:50:37;99542.94;;;21.16;78.40
80798;BME280;70202;52.238;10.680;2023-09-18T01:51:40;99544.84;;;21.16;78.27
80798;BME280;70202;52.238;10.680;2023-09-18T01:52:40;99551.84;;;21.20;78.42
80798;BME280;70202;52.238;10.680;2023-09-18T01:53:40;99561.44;;;21.26;78.41
80798;BME280;70202;52.238;10.680;2023-09-18T01:54:41;99534.75;;;21.15;78.42
80798;BME280;70202;52.238;10.680;2023-09-18T01:55:41;99527.91;;;21.09;78.30
80798;BME280;70202;52.238;10.680;2023-09-18T01:56:42;99554.28;;;21.23;78.49
80798;BME280;70202;52.238;10.680;2023-09-18T01:57:42;99551.84;;;21.20;78.39
80798;BME280;70202;52.238;10.680;2023-09-18T01:58:42;99553.56;;;21.21;78.64
80798;BME280;70202;52.238;10.680;2023-09-18T01:59:43;99535.78;;;21.14;78.39
80798;BME280;70202;52.238;10.680;2023-09-18T02:00:45;99534.31;;;21.10;78.52
80798;BME280;70202;52.238;10.680;2023-09-18T02:01:45;99535.06;;;21.12;79.00
80798;BME280;70202;52.238;10.680;2023-09-18T02:02:45;99539.00;;;21.09;79.09
80798;BME280;70202;52.238;10.680;2023-09-18T02:03:46;99547.72;;;21.14;78.93
80798;BME280;70202;52.238;10.680;2023-09-18T02:04:47;99530.25;;;21.04;78.92
80798;BME280;70202;52.238;10.680;2023-09-18T02:05:47;99528.63;;;21.02;79.11
80798;BME280;70202;52.238;10.680;2023-09-18T02:06:49;99536.06;;;21.11;79.03
80798;BME280;70202;52.238;10.680;2023-09-18T02:07:50;99529.38;;;21.04;78.89
80798;BME280;70202;52.238;10.680;2023-09-18T02:08:51;99525.72;;;21.03;79.07
80798;BME280;70202;52.238;10.680;2023-09-18T02:09:51;99520.31;;;21.02;79.00
80798;BME280;70202;52.238;10.680;2023-09-18T02:10:52;99511.75;;;20.95;78.94
80798;BME280;70202;52.238;10.680;2023-09-18T02:11:53;99526.59;;;21.04;79.07
80798;BME280;70202;52.238;10.680;2023-09-18T02:12:53;99536.97;;;21.11;79.21
80798;BME280;70202;52.238;10.680;2023-09-18T02:13:54;99531.41;;;21.11;79.10
80798;BME280;70202;52.238;10.680;2023-09-18T02:14:54;99512.75;;;21.04;79.15
80798;BME280;70202;52.238;10.680;2023-09-18T02:15:57;99511.16;;;21.01;79.14
80798;BME280;70202;52.238;10.680;2023-09-18T02:16:57;99529.38;;;21.13;79.28
80798;BME280;70202;52.238;10.680;2023-09-18T02:17:58;99523.97;;;21.12;79.52
80798;BME280;70202;52.238;10.680;2023-09-18T02:18:58;99518.56;;;21.10;79.53
80798;BME280;70202;52.238;10.680;2023-09-18T02:19:59;99516.66;;;21.11;79.43
80798;BME280;70202;52.238;10.680;2023-09-18T02:21:04;99510.13;;;21.02;79.30
80798;BME280;70202;52.238;10.680;2023-09-18T02:22:05;99510.88;;;21.04;79.48
80798;BME280;70202;52.238;10.680;2023-09-18T02:23:05;99493.22;;;20.95;79.30
80798;BME280;70202;52.238;10.680;2023-09-18T02:24:06;99432.16;;;20.58;79.19
80798;BME280;70202;52.238;10.680;2023-09-18T02:25:07;99502.84;;;21.01;79.70
80798;BME280;70202;52.238;10.680;2023-09-18T02:26:07;99515.09;;;21.08;79.39
80798;BME280;70202;52.238;10.680;2023-09-18T02:27:08;99506.47;;;21.02;79.40
80798;BME280;70202;52.238;10.680;2023-09-18T02:28:08;99502.25;;;20.97;79.45
80798;BME280;70202;52.238;10.680;2023-09-18T02:29:09;99517.28;;;21.05;79.71
80798;BME280;70202;52.238;10.680;2023-09-18T02:30:14;99496.28;;;20.92;79.74
80798;BME280;70202;52.238;10.680;2023-09-18T02:31:14;99513.63;;;21.04;79.76
80798;BME280;70202;52.238;10.680;2023-09-18T02:32:15;99511.59;;;20.96;80.06
80798;BME280;70202;52.238;10.680;2023-09-18T02:33:15;99517.44;;;21.03;79.98
80798;BME280;70202;52.238;10.680;2023-09-18T02:34:16;99506.63;;;20.90;79.96
80798;BME280;70202;52.238;10.680;2023-09-18T02:35:18;99499.31;;;20.89;80.06
80798;BME280;70202;52.238;10.680;2023-09-18T02:36:18;99521.19;;;21.02;79.97
80798;BME280;70202;52.238;10.680;2023-09-18T02:37:19;99492.50;;;20.84;80.15
80798;BME280;70202;52.238;10.680;2023-09-18T02:38:19;99525.84;;;21.02;79.98
80798;BME280;70202;52.238;10.680;2023-09-18T02:39:19;99519.44;;;21.01;80.07
80798;BME280;70202;52.238;10.680;2023-09-18T02:40:20;99518.41;;;21.02;80.23
80798;BME280;70202;52.238;10.680;2023-09-18T02:41:20;99503.72;;;20.92;80.42
80798;BME280;70202;52.238;10.680;2023-09-18T02:42:21;99506.19;;;20.95;80.22
80798;BME280;70202;52.238;10.680;2023-09-18T02:43:21;99518.56;;;21.01;80.59
80798;BME280;70202;52.238;10.680;2023-09-18T02:44:21;99505.16;;;20.96;80.56
80798;BME280;70202;52.238;10.680;2023-09-18T02:45:22;99514.06;;;21.00;80.69
80798;BME280;70202;52.238;10.680;2023-09-18T02:46:22;99482.44;;;20.83;80.94
80798;BME280;70202;52.238;10.680;2023-09-18T02:47:23;99484.47;;;20.81;80.96
80798;BME280;70202;52.238;10.680;2023-09-18T02:48:23;99499.31;;;20.89;80.81
80798;BME280;70202;52.238;10.680;2023-09-18T02:49:23;99496.00;;;20.86;81.00
80798;BME280;70202;52.238;10.680;2023-09-18T02:50:24;99487.13;;;20.82;81.05
80798;BME280;70202;52.238;10.680;2023-09-18T02:51:24;99485.66;;;20.78;81.05
80798;BME280;70202;52.238;10.680;2023-09-18T02:52:25;99489.00;;;20.82;81.01
80798;BME280;70202;52.238;10.680;2023-09-18T02:53:25;99487.38;;;20.79;80.97
80798;BME280;70202;52.238;10.680;2023-09-18T02:54:26;99499.31;;;20.89;80.96
80798;BME280;70202;52.238;10.680;2023-09-18T02:55:27;99482.28;;;20.84;81.28
80798;BME280;70202;52.238;10.680;2023-09-18T02:56:27;99481.13;;;20.87;81.00
80798;BME280;70202;52.238;10.680;2023-09-18T02:57:28;99468.00;;;20.79;81.09
80798;BME280;70202;52.238;10.680;2023-09-18T02:58:28;99487.97;;;20.92;81.12
80798;BME280;70202;52.238;10.680;2023-09-18T02:59:29;99480.25;;;20.86;81.00
80798;BME280;70202;52.238;10.680;2023-09-18T03:00:30;99487.81;;;20.94;81.20
80798;BME280;70202;52.238;10.680;2023-09-18T03:01:30;99480.25;;;20.96;81.15
80798;BME280;70202;52.238;10.680;2023-09-18T03:02:31;99482.88;;;20.97;81.21
80798;BME280;70202;52.238;10.680;2023-09-18T03:03:31;99483.72;;;20.98;81.36
80798;BME280;70202;52.238;10.680;2023-09-18T03:04:31;99476.16;;;21.00;81.10
80798;BME280;70202;52.238;10.680;2023-09-18T03:05:32;99463.06;;;20.92;81.32
80798;BME280;70202;52.238;10.680;2023-09-18T03:06:32;99473.25;;;21.02;81.38
80798;BME280;70202;52.238;10.680;2023-09-18T03:07:32;99472.97;;;21.05;81.00
80798;BME280;70202;52.238;10.680;2023-09-18T03:08:33;99474.56;;;21.07;81.24
80798;BME280;70202;52.238;10.680;2023-09-18T03:09:35;99478.94;;;21.10;81.37
80798;BME280;70202;52.238;10.680;2023-09-18T03:10:37;99469.59;;;21.11;81.13
80798;BME280;70202;52.238;10.680;2023-09-18T03:11:39;99470.50;;;21.11;81.02
80798;BME280;70202;52.238;10.680;2023-09-18T03:12:40;99467.56;;;21.13;81.11
80798;BME280;70202;52.238;10.680;2023-09-18T03:13:45;99466.53;;;21.14;80.88
80798;BME280;70202;52.238;10.680;2023-09-18T03:14:49;99469.19;;;21.15;80.69
80798;BME280;70202;52.238;10.680;2023-09-18T03:15:49;99470.03;;;21.16;80.84
80798;BME280;70202;52.238;10.680;2023-09-18T03:16:50;99467.13;;;21.17;80.83
80798;BME280;70202;52.238;10.680;2023-09-18T03:17:50;99468.72;;;21.20;80.94
80798;BME280;70202;52.238;10.680;2023-09-18T03:18:51;99463.19;;;21.20;80.94
80798;BME280;70202;52.238;10.680;2023-09-18T03:19:51;99457.78;;;21.18;81.00
80798;BME280;70202;52.238;10.680;2023-09-18T03:20:51;99431.13;;;21.08;80.90
80798;BME280;70202;52.238;10.680;2023-09-18T03:22:54;99457.91;;;21.27;80.73
80798;BME280;70202;52.238;10.680;2023-09-18T03:23:54;99456.16;;;21.26;80.66
80798;BME280;70202;52.238;10.680;2023-09-18T03:24:55;99456.88;;;21.28;80.71
80798;BME280;70202;52.238;10.680;2023-09-18T03:25:55;99455.59;;;21.32;80.86
80798;BME280;70202;52.238;10.680;2023-09-18T03:26:55;99446.38;;;21.31;80.83
80798;BME280;70202;52.238;10.680;2023-09-18T03:27:57;99435.63;;;21.28;80.65
80798;BME280;70202;52.238;10.680;2023-09-18T03:28:57;99447.72;;;21.37;80.71
80798;BME280;70202;52.238;10.680;2023-09-18T03:29:58;99445.66;;;21.39;80.67
80798;BME280;70202;52.238;10.680;2023-09-18T03:30:58;99445.50;;;21.40;80.69
80798;BME280;70202;52.238;10.680;2023-09-18T03:31:59;99448.28;;;21.40;80.70
80798;BME280;70202;52.238;10.680;2023-09-18T03:32:59;99437.34;;;21.39;80.72
80798;BME280;70202;52.238;10.680;2023-09-18T03:34:00;99436.59;;;21.46;80.49
80798;BME280;70202;52.238;10.680;2023-09-18T03:35:00;99433.97;;;21.45;80.15
80798;BME280;70202;52.238;10.680;2023-09-18T03:36:00;99427.88;;;21.41;80.33
80798;BME280;70202;52.238;10.680;2023-09-18T03:37:01;99434.41;;;21.50;80.35
80798;BME280;70202;52.238;10.680;2023-09-18T03:38:01;99423.78;;;21.45;80.67
80798;BME280;70202;52.238;10.680;2023-09-18T03:39:02;99427.56;;;21.54;80.40
80798;BME280;70202;52.238;10.680;2023-09-18T03:40:05;99404.69;;;21.42;80.40
80798;BME280;70202;52.238;10.680;2023-09-18T03:41:06;99406.84;;;21.49;80.36
80798;BME280;70202;52.238;10.680;2023-09-18T03:42:06;99429.53;;;21.62;80.37
80798;BME280;70202;52.238;10.680;2023-09-18T03:43:07;99409.16;;;21.53;80.34
80798;BME280;70202;52.238;10.680;2023-09-18T03:44:07;99411.63;;;21.56;80.21
80798;BME280;70202;52.238;10.680;2023-09-18T03:45:10;99397.94;;;21.55;79.85
80798;BME280;70202;52.238;10.680;2023-09-18T03:46:11;99408.69;;;21.58;79.88
80798;BME280;70202;52.238;10.680;2023-09-18T03:47:11;99402.16;;;21.59;79.87
80798;BME280;70202;52.238;10.680;2023-09-18T03:48:11;99424.97;;;21.70;79.93
80798;BME280;70202;52.238;10.680;2023-09-18T03:49:12;99415.25;;;21.66;79.95
80798;BME280;70202;52.238;10.680;2023-09-18T03:50:13;99409.72;;;21.66;79.87
80798;BME280;70202;52.238;10.680;2023-09-18T03:51:13;99410.41;;;21.68;79.51
80798;BME280;70202;52.238;10.680;2023-09-18T03:52:16;99338.31;;;21.31;80.03
80798;BME280;70202;52.238;10.680;2023-09-18T03:53:16;99405.91;;;21.67;79.61
80798;BME280;70202;52.238;10.680;2023-09-18T03:54:17;99402.38;;;21.65;79.61
80798;BME280;70202;52.238;10.680;2023-09-18T03:55:18;99383.44;;;21.61;79.51
80798;BME280;70202;52.238;10.680;2023-09-18T03:56:18;99401.22;;;21.68;79.80
80798;BME280;70202;52.238;10.680;2023-09-18T03:57:18;99403.25;;;21.76;79.54
80798;BME280;70202;52.238;10.680;2023-09-18T03:58:19;99390.53;;;21.73;79.51
80798;BME280;70202;52.238;10.680;2023-09-18T03:59:20;99380.78;;;21.69;79.38
80798;BME280;70202;52.238;10.680;2023-09-18T04:00:21;99386.03;;;21.72;79.42
80798;BME280;70202;52.238;10.680;2023-09-18T04:01:22;99397.38;;;21.79;79.20
80798;BME280;70202;52.238;10.680;2023-09-18T04:02:25;99392.72;;;21.79;79.41
80798;BME280;70202;52.238;10.680;2023-09-18T04:03:25;99379.63;;;21.71;78.91
80798;BME280;70202;52.238;10.680;2023-09-18T04:04:26;99381.53;;;21.71;79.13
80798;BME280;70202;52.238;10.680;2023-09-18T04:05:27;99377.84;;;21.70;79.24
80798;BME280;70202;52.238;10.680;2023-09-18T04:06:36;99389.03;;;21.79;79.17
80798;BME280;70202;52.238;10.680;2023-09-18T04:07:37;99390.66;;;21.81;79.27
80798;BME280;70202;52.238;10.680;2023-09-18T04:08:38;99392.56;;;21.81;79.16
80798;BME280;70202;52.238;10.680;2023-09-18T04:09:38;99384.69;;;21.76;79.30
80798;BME280;70202;52.238;10.680;2023-09-18T04:10:39;99387.88;;;21.81;79.18
80798;BME280;70202;52.238;10.680;2023-09-18T04:11:40;99359.25;;;21.63;78.85
80798;BME280;70202;52.238;10.680;2023-09-18T04:12:40;99366.16;;;21.77;79.02
80798;BME280;70202;52.238;10.680;2023-09-18T04:13:41;99370.66;;;21.78;79.14
80798;BME280;70202;52.238;10.680;2023-09-18T04:14:41;99366.00;;;21.78;79.17
80798;BME280;70202;52.238;10.680;2023-09-18T04:15:42;99351.50;;;21.66;78.97
80798;BME280;70202;52.238;10.680;2023-09-18T04:16:42;99347.34;;;21.70;79.06
80798;BME280;70202;52.238;10.680;2023-09-18T04:17:43;99370.19;;;21.82;79.13
80798;BME280;70202;52.238;10.680;2023-09-18T04:18:43;99353.63;;;21.73;79.00
80798;BME280;70202;52.238;10.680;2023-09-18T04:19:44;99359.13;;;21.82;79.15
80798;BME280;70202;52.238;10.680;2023-09-18T04:20:44;99351.25;;;21.78;79.09
80798;BME280;70202;52.238;10.680;2023-09-18T04:21:45;99367.44;;;21.82;78.94
80798;BME280;70202;52.238;10.680;2023-09-18T04:22:46;99354.59;;;21.81;78.97
80798;BME280;70202;52.238;10.680;2023-09-18T04:23:50;99341.69;;;21.72;78.86
80798;BME280;70202;52.238;10.680;2023-09-18T04:24:55;99330.03;;;21.68;78.68
80798;BME280;70202;52.238;10.680;2023-09-18T04:25:56;99338.44;;;21.77;79.05
80798;BME280;70202;52.238;10.680;2023-09-18T04:26:58;99336.53;;;21.77;79.10
80798;BME280;70202;52.238;10.680;2023-09-18T04:27:58;99352.41;;;21.85;78.77
80798;BME280;70202;52.238;10.680;2023-09-18T04:29:00;99339.00;;;21.80;79.02
80798;BME280;70202;52.238;10.680;2023-09-18T04:30:00;99331.16;;;21.76;78.96
80798;BME280;70202;52.238;10.680;2023-09-18T04:31:01;99346.00;;;21.84;78.90
80798;BME280;70202;52.238;10.680;2023-09-18T04:32:02;99321.06;;;21.75;78.95
80798;BME280;70202;52.238;10.680;2023-09-18T04:33:04;99341.31;;;21.85;79.11
80798;BME280;70202;52.238;10.680;2023-09-18T04:34:04;99331.00;;;21.77;79.14
80798;BME280;70202;52.238;10.680;2023-09-18T04:35:05;99335.75;;;21.85;78.86
80798;BME280;70202;52.238;10.680;2023-09-18T04:36:06;99323.53;;;21.78;78.78
80798;BME280;70202;52.238;10.680;2023-09-18T04:37:07;99331.09;;;21.85;78.94
80798;BME280;70202;52.238;10.680;2023-09-18T04:38:08;99330.22;;;21.85;78.74
80798;BME280;70202;52.238;10.680;2023-09-18T04:39:08;99320.28;;;21.82;78.97
80798;BME280;70202;52.238;10.680;2023-09-18T04:40:09;99312.44;;;21.78;78.94
80798;BME280;70202;52.238;10.680;2023-09-18T04:41:10;99304.03;;;21.69;78.89
80798;BME280;70202;52.238;10.680;2023-09-18T04:42:14;99304.44;;;21.75;79.07
80798;BME280;70202;52.238;10.680;2023-09-18T04:43:15;99289.31;;;21.69;78.84
80798;BME280;70202;52.238;10.680;2023-09-18T04:44:15;99315.97;;;21.80;78.86
80798;BME280;70202;52.238;10.680;2023-09-18T04:45:17;99312.44;;;21.78;78.77
80798;BME280;70202;52.238;10.680;2023-09-18T04:46:18;99307.94;;;21.77;78.89
80798;BME280;70202;52.238;10.680;2023-09-18T04:47:18;99294.69;;;21.70;78.85
80798;BME280;70202;52.238;10.680;2023-09-18T04:48:19;99298.50;;;21.69;78.71
80798;BME280;70202;52.238;10.680;2023-09-18T04:49:19;99313.31;;;21.78;78.95
80798;BME280;70202;52.238;10.680;2023-09-18T04:50:20;99307.94;;;21.77;79.03
80798;BME280;70202;52.238;10.680;2023-09-18T04:51:20;99314.53;;;21.76;79.02
80798;BME280;70202;52.238;10.680;2023-09-18T04:52:20;99315.53;;;21.75;79.03
80798;BME280;70202;52.238;10.680;2023-09-18T04:53:21;99288.34;;;21.60;79.06
80798;BME280;70202;52.238;10.680;2023-09-18T04:54:21;99308.97;;;21.76;79.02
80798;BME280;70202;52.238;10.680;2023-09-18T04:55:22;99293.13;;;21.68;79.21
80798;BME280;70202;52.238;10.680;2023-09-18T04:56:22;99303.56;;;21.74;79.08
80798;BME280;70202;52.238;10.680;2023-09-18T04:57:22;99284.22;;;21.64;79.09
80798;BME280;70202;52.238;10.680;2023-09-18T04:58:23;99305.47;;;21.74;79.01
80798;BME280;70202;52.238;10.680;2023-09-18T04:59:23;99285.28;;;21.63;79.04
80798;BME280;70202;52.238;10.680;2023-09-18T05:00:24;99299.06;;;21.73;78.94
80798;BME280;70202;52.238;10.680;2023-09-18T05:01:26;99292.81;;;21.71;79.04
80798;BME280;70202;52.238;10.680;2023-09-18T05:02:26;99299.78;;;21.75;79.24
80798;BME280;70202;52.238;10.680;2023-09-18T05:03:28;99298.03;;;21.74;78.96
80798;BME280;70202;52.238;10.680;2023-09-18T05:04:29;99289.31;;;21.69;79.52
80798;BME280;70202;52.238;10.680;2023-09-18T05:05:29;99287.00;;;21.64;78.79
80798;BME280;70202;52.238;10.680;2023-09-18T05:06:30;99300.66;;;21.76;78.87
80798;BME280;70202;52.238;10.680;2023-09-18T05:07:30;99295.25;;;21.74;78.83
80798;BME280;70202;52.238;10.680;2023-09-18T05:08:31;99289.88;;;21.73;78.73
80798;BME280;70202;52.238;10.680;2023-09-18T05:09:32;99295.81;;;21.78;78.61
80798;BME280;70202;52.238;10.680;2023-09-18T05:10:36;99273.72;;;21.68;78.86
80798;BME280;70202;52.238;10.680;2023-09-18T05:11:37;99262.78;;;21.66;78.46
80798;BME280;70202;52.238;10.680;2023-09-18T05:12:40;99285.13;;;21.83;78.63
80798;BME280;70202;52.238;10.680;2023-09-18T05:13:41;99270.63;;;21.71;78.56
80798;BME280;70202;52.238;10.680;2023-09-18T05:14:41;99264.19;;;21.70;78.42
80798;BME280;70202;52.238;10.680;2023-09-18T05:15:42;99276.56;;;21.76;78.41
80798;BME280;70202;52.238;10.680;2023-09-18T05:16:42;99268.09;;;21.78;78.57
80798;BME280;70202;52.238;10.680;2023-09-18T05:17:47;99274.75;;;21.85;78.33
80798;BME280;70202;52.238;10.680;2023-09-18T05:18:48;99284.25;;;21.82;78.30
80798;BME280;70202;52.238;10.680;2023-09-18T05:19:48;99284.25;;;21.82;78.12
80798;BME280;70202;52.238;10.680;2023-09-18T05:20:48;99270.94;;;21.86;78.06
80798;BME280;70202;52.238;10.680;2023-09-18T05:21:49;99263.09;;;21.81;78.10